createdAt,value
2018-06-10T00:00:01.544Z,32.50
2018-06-10T00:02:28.917Z,28.77
2018-06-10T00:04:56.298Z,28.60
2018-06-10T00:07:23.678Z,30.57
2018-06-10T00:09:51.089Z,30.20
2018-06-10T00:12:18.498Z,29.90
2018-06-10T00:14:45.949Z,31.23
2018-06-10T00:17:13.294Z,28.63
2018-06-10T00:19:40.739Z,29.17
2018-06-10T00:22:08.073Z,32.07
2018-06-10T00:24:35.438Z,30.60
2018-06-10T00:27:02.881Z,30.57
2018-06-10T00:29:30.250Z,30.37
2018-06-10T00:31:57.617Z,32.13
2018-06-10T00:34:24.951Z,26.77
2018-06-10T00:36:52.368Z,29.40
2018-06-10T00:39:19.762Z,28.23
2018-06-10T00:41:47.173Z,30.13
2018-06-10T00:44:14.560Z,30.87
2018-06-10T00:46:42.147Z,27.00
2018-06-10T00:49:09.558Z,29.80
2018-06-10T00:51:36.949Z,29.27
2018-06-10T00:54:04.597Z,27.00
2018-06-10T00:56:51.372Z,29.60
2018-06-10T00:59:18.837Z,32.27
2018-06-10T01:01:46.172Z,33.30
2018-06-10T01:04:13.519Z,30.30
2018-06-10T01:06:40.979Z,29.00
2018-06-10T01:09:09.158Z,30.20
2018-06-10T01:11:37.198Z,29.20
2018-06-10T01:14:04.901Z,29.57
2018-06-10T01:16:32.302Z,30.20
2018-06-10T01:18:59.812Z,31.13
2018-06-10T01:21:27.222Z,31.27
2018-06-10T01:23:54.986Z,30.93
2018-06-10T01:26:27.978Z,31.30
2018-06-10T01:28:55.933Z,31.77
2018-06-10T01:31:23.356Z,33.27
2018-06-10T01:33:50.777Z,32.57
2018-06-10T01:36:18.122Z,33.10
2018-06-10T01:38:45.562Z,32.00
2018-06-10T01:41:12.997Z,25.17
2018-06-10T01:43:40.349Z,30.13
2018-06-10T01:46:07.709Z,31.30
2018-06-10T01:48:35.611Z,29.37
2018-06-10T01:51:02.951Z,30.87
2018-06-10T01:53:30.473Z,26.70
2018-06-10T01:55:57.828Z,30.40
2018-06-10T01:58:25.164Z,31.23
2018-06-10T02:00:52.541Z,29.77
2018-06-10T02:03:20.342Z,30.20
2018-06-10T02:05:47.754Z,30.83
2018-06-10T02:08:15.078Z,32.13
2018-06-10T02:10:42.445Z,29.40
2018-06-10T02:13:09.812Z,30.17
2018-06-10T02:15:37.210Z,32.43
2018-06-10T02:18:04.573Z,30.47
2018-06-10T02:20:31.921Z,30.27
2018-06-10T02:22:59.280Z,32.87
2018-06-10T02:25:26.709Z,30.23
2018-06-10T02:27:54.010Z,32.57
2018-06-10T02:30:21.369Z,33.20
2018-06-10T02:32:48.735Z,29.87
2018-06-10T02:35:16.130Z,31.40
2018-06-10T02:37:43.485Z,32.27
2018-06-10T02:40:10.821Z,33.73
2018-06-10T02:42:38.216Z,31.13
2018-06-10T02:45:05.602Z,31.30
2018-06-10T02:47:32.934Z,30.13
2018-06-10T02:50:00.276Z,33.10
2018-06-10T02:52:27.671Z,38.57
2018-06-10T02:54:55.059Z,36.10
2018-06-10T02:57:22.415Z,37.13
2018-06-10T02:59:49.913Z,42.23
2018-06-10T03:02:17.285Z,36.33
2018-06-10T03:04:44.597Z,41.07
2018-06-10T03:07:11.938Z,36.17
2018-06-10T03:09:39.301Z,35.40
2018-06-10T03:12:06.717Z,36.90
2018-06-10T03:14:34.113Z,42.97
2018-06-10T03:17:01.725Z,41.47
2018-06-10T03:19:29.062Z,45.33
2018-06-10T03:21:56.417Z,44.13
2018-06-10T03:24:23.786Z,54.20
2018-06-10T03:26:51.117Z,47.50
2018-06-10T03:29:18.922Z,59.77
2018-06-10T03:31:46.326Z,42.63
2018-06-10T03:34:13.669Z,55.83
2018-06-10T03:36:41.017Z,48.60
2018-06-10T03:39:08.484Z,47.20
2018-06-10T03:41:35.973Z,46.03
2018-06-10T03:44:03.321Z,45.77
2018-06-10T03:46:30.674Z,45.87
2018-06-10T03:48:58.084Z,49.70
2018-06-10T03:51:25.502Z,45.73
2018-06-10T03:53:52.878Z,51.27
2018-06-10T03:56:20.230Z,45.70
2018-06-10T03:58:47.581Z,43.33
2018-06-10T04:01:14.941Z,41.87
2018-06-10T04:03:42.339Z,42.30
2018-06-10T04:06:09.681Z,45.40
2018-06-10T04:08:37.057Z,46.87
2018-06-10T04:11:04.438Z,44.23
2018-06-10T04:13:31.825Z,47.33
2018-06-10T04:15:59.213Z,45.57
2018-06-10T04:18:26.545Z,43.43
2018-06-10T04:20:53.914Z,41.07
2018-06-10T04:23:21.285Z,46.50
2018-06-10T04:25:48.649Z,41.57
2018-06-10T04:28:15.999Z,42.10
2018-06-10T04:30:43.333Z,43.40
2018-06-10T04:33:10.709Z,39.97
2018-06-10T04:35:38.112Z,40.40
2018-06-10T04:38:05.474Z,38.93
2018-06-10T04:40:32.824Z,36.57
2018-06-10T04:43:00.201Z,38.30
2018-06-10T04:45:27.549Z,33.80
2018-06-10T04:47:54.910Z,39.93
2018-06-10T04:50:22.321Z,36.67
2018-06-10T04:52:49.662Z,37.40
2018-06-10T04:55:17.053Z,39.17
2018-06-10T04:57:44.366Z,38.57
2018-06-10T05:00:11.789Z,38.23
2018-06-10T05:02:39.145Z,31.30
2018-06-10T05:05:06.481Z,33.10
2018-06-10T05:07:33.847Z,31.10
2018-06-10T05:10:01.268Z,33.87
2018-06-10T05:12:28.659Z,30.60
2018-06-10T05:14:55.994Z,31.03
2018-06-10T05:17:23.313Z,32.80
2018-06-10T05:19:50.762Z,29.57
2018-06-10T05:22:18.017Z,30.93
2018-06-10T05:24:45.350Z,28.57
2018-06-10T05:27:12.681Z,28.33
2018-06-10T05:29:40.045Z,27.77
2018-06-10T05:32:07.389Z,29.73
2018-06-10T05:34:34.729Z,31.97
2018-06-10T05:37:02.102Z,25.10
2018-06-10T05:39:29.461Z,30.27
2018-06-10T05:41:56.798Z,28.53
2018-06-10T05:44:24.255Z,34.13
2018-06-10T05:46:51.613Z,32.87
2018-06-10T05:49:19.053Z,35.47
2018-06-10T05:51:46.577Z,29.10
2018-06-10T05:54:13.933Z,30.40
2018-06-10T05:56:41.297Z,29.33
2018-06-10T05:59:08.750Z,30.00
2018-06-10T06:01:36.078Z,34.93
2018-06-10T06:04:03.442Z,31.07
2018-06-10T06:06:30.806Z,35.77
2018-06-10T06:08:58.130Z,27.30
2018-06-10T06:11:25.493Z,30.90
2018-06-10T06:13:52.873Z,28.57
2018-06-10T06:16:20.185Z,26.93
2018-06-10T06:18:47.521Z,28.37
2018-06-10T06:21:14.833Z,29.40
2018-06-10T06:23:42.177Z,31.13
2018-06-10T06:26:09.561Z,34.17
2018-06-10T06:28:36.969Z,26.23
2018-06-10T06:31:04.337Z,35.43
2018-06-10T06:33:31.794Z,32.07
2018-06-10T06:35:59.131Z,28.30
2018-06-10T06:38:26.557Z,31.50
2018-06-10T06:40:53.936Z,31.73
2018-06-10T06:43:21.264Z,29.20
2018-06-10T06:45:48.622Z,36.53
2018-06-10T06:48:15.961Z,28.83
2018-06-10T06:50:43.664Z,32.87
2018-06-10T06:53:11.021Z,30.73
2018-06-10T06:55:38.381Z,34.03
2018-06-10T06:58:05.718Z,28.57
2018-06-10T07:00:33.043Z,30.73
2018-06-10T07:03:00.466Z,37.57
2018-06-10T07:05:27.792Z,29.60
2018-06-10T07:08:00.069Z,31.13
2018-06-10T07:10:27.392Z,34.00
2018-06-10T07:12:54.914Z,34.33
2018-06-10T07:15:22.253Z,30.07
2018-06-10T07:17:49.612Z,31.63
2018-06-10T07:20:17.022Z,34.97
2018-06-10T07:22:44.350Z,32.47
2018-06-10T07:25:11.684Z,36.37
2018-06-10T07:27:39.090Z,33.20
2018-06-10T07:30:06.794Z,32.80
2018-06-10T07:32:34.141Z,30.23
2018-06-10T07:35:01.469Z,34.40
2018-06-10T07:37:28.841Z,32.50
2018-06-10T07:39:56.208Z,31.70
2018-06-10T07:42:23.533Z,31.60
2018-06-10T07:44:50.866Z,30.43
2018-06-10T07:47:18.237Z,37.30
2018-06-10T07:49:45.706Z,31.70
2018-06-10T07:52:13.042Z,30.30
2018-06-10T07:54:40.446Z,38.83
2018-06-10T07:57:07.898Z,28.23
2018-06-10T07:59:35.221Z,37.10
2018-06-10T08:02:02.605Z,30.73
2018-06-10T08:04:29.997Z,33.23
2018-06-10T08:06:57.381Z,33.47
2018-06-10T08:09:24.741Z,29.73
2018-06-10T08:11:52.148Z,33.67
2018-06-10T08:14:19.599Z,35.83
2018-06-10T08:16:46.933Z,32.93
2018-06-10T08:19:14.256Z,32.00
2018-06-10T08:21:41.673Z,35.20
2018-06-10T08:24:09.049Z,33.63
2018-06-10T08:26:36.684Z,33.80
2018-06-10T08:29:04.198Z,33.90
2018-06-10T08:31:31.525Z,30.93
2018-06-10T08:33:58.998Z,35.30
2018-06-10T08:36:26.364Z,30.00
2018-06-10T08:38:53.712Z,29.23
2018-06-10T08:41:21.038Z,34.40
2018-06-10T08:43:48.525Z,28.57
2018-06-10T08:46:15.821Z,33.43
2018-06-10T08:48:43.239Z,29.03
2018-06-10T08:51:10.577Z,32.03
2018-06-10T08:53:37.993Z,33.40
2018-06-10T08:56:05.405Z,30.30
2018-06-10T08:58:32.765Z,29.47
2018-06-10T09:01:00.229Z,29.87
2018-06-10T09:03:27.689Z,30.13
2018-06-10T09:05:55.109Z,27.33
2018-06-10T09:08:22.508Z,28.90
2018-06-10T09:10:49.870Z,27.43
2018-06-10T09:13:17.745Z,32.30
2018-06-10T09:15:45.166Z,28.30
2018-06-10T09:18:12.469Z,28.23
2018-06-10T09:20:39.866Z,29.77
2018-06-10T09:23:07.236Z,28.13
2018-06-10T09:25:34.694Z,27.43
2018-06-10T09:28:02.185Z,26.10
2018-06-10T09:30:30.169Z,28.00
2018-06-10T09:32:57.525Z,27.23
2018-06-10T09:35:24.904Z,26.30
2018-06-10T09:37:52.328Z,27.07
2018-06-10T09:40:19.718Z,27.43
2018-06-10T09:42:47.072Z,29.63
2018-06-10T09:45:14.421Z,28.73
2018-06-10T09:47:41.756Z,29.07
2018-06-10T09:50:09.163Z,29.10
2018-06-10T09:52:37.015Z,29.40
2018-06-10T09:55:04.410Z,29.17
2018-06-10T09:57:31.769Z,24.07
2018-06-10T09:59:59.160Z,31.40
2018-06-10T10:02:26.593Z,28.03
2018-06-10T10:04:53.969Z,27.93
2018-06-10T10:07:21.334Z,25.77
2018-06-10T10:09:48.722Z,27.43
2018-06-10T10:12:16.136Z,28.70
2018-06-10T10:14:43.606Z,29.83
2018-06-10T10:17:11.034Z,25.03
2018-06-10T10:19:38.423Z,24.87
2018-06-10T10:22:05.886Z,27.33
2018-06-10T10:24:33.344Z,24.83
2018-06-10T10:27:00.694Z,25.47
2018-06-10T10:29:28.071Z,25.93
2018-06-10T10:31:55.483Z,25.23
2018-06-10T10:34:22.827Z,25.20
2018-06-10T10:36:50.249Z,24.80
2018-06-10T10:39:18.049Z,25.00
2018-06-10T10:41:45.465Z,23.83
2018-06-10T10:44:14.467Z,22.93
2018-06-10T10:46:41.981Z,21.90
2018-06-10T10:49:09.342Z,22.30
2018-06-10T10:51:36.718Z,20.33
2018-06-10T10:54:04.230Z,20.27
2018-06-10T10:56:31.908Z,20.47
2018-06-10T10:58:59.407Z,19.77
2018-06-10T11:01:26.790Z,20.03
2018-06-10T11:03:54.152Z,20.93
2018-06-10T11:06:21.813Z,19.17
2018-06-10T11:08:49.250Z,19.83
2018-06-10T11:11:16.588Z,18.83
2018-06-10T11:13:43.985Z,20.27
2018-06-10T11:16:11.335Z,17.87
2018-06-10T11:18:38.700Z,17.20
2018-06-10T11:21:06.065Z,19.10
2018-06-10T11:23:33.401Z,17.67
2018-06-10T11:26:00.753Z,17.17
2018-06-10T11:28:28.141Z,18.40
2018-06-10T11:30:55.517Z,17.13
2018-06-10T11:33:25.811Z,16.33
2018-06-10T11:35:53.304Z,17.50
2018-06-10T11:38:21.001Z,15.93
2018-06-10T11:40:48.460Z,15.50
2018-06-10T11:43:15.810Z,13.67
2018-06-10T11:45:43.131Z,13.13
2018-06-10T11:48:10.466Z,13.40
2018-06-10T11:50:37.978Z,12.50
2018-06-10T11:53:05.385Z,13.03
2018-06-10T11:55:32.736Z,12.83
2018-06-10T11:58:00.274Z,13.40
2018-06-10T12:00:27.502Z,13.27
2018-06-10T12:02:54.958Z,12.77
2018-06-10T12:05:22.331Z,14.83
2018-06-10T12:07:49.753Z,14.10
2018-06-10T12:10:17.166Z,11.70
2018-06-10T12:12:44.528Z,11.73
2018-06-10T12:15:12.027Z,12.07
2018-06-10T12:17:39.381Z,10.60
2018-06-10T12:20:06.765Z,13.63
2018-06-10T12:22:34.185Z,14.73
2018-06-10T12:25:01.521Z,14.30
2018-06-10T12:27:29.250Z,14.23
2018-06-10T12:29:56.665Z,13.87
2018-06-10T12:32:24.113Z,14.63
2018-06-10T12:34:51.563Z,13.37
2018-06-10T12:37:19.171Z,13.77
2018-06-10T12:39:46.525Z,13.33
2018-06-10T12:42:14.049Z,14.97
2018-06-10T12:44:41.543Z,13.27
2018-06-10T12:47:08.907Z,13.60
2018-06-10T12:49:36.258Z,13.00
2018-06-10T12:52:03.703Z,13.10
2018-06-10T12:54:31.097Z,13.00
2018-06-10T12:56:58.479Z,14.60
2018-06-10T12:59:25.877Z,14.17
2018-06-10T13:01:53.277Z,13.97
2018-06-10T13:04:20.751Z,14.47
2018-06-10T13:06:48.117Z,17.13
2018-06-10T13:09:15.680Z,14.80
2018-06-10T13:11:43.311Z,15.37
2018-06-10T13:14:10.741Z,14.67
2018-06-10T13:16:38.208Z,12.90
2018-06-10T13:19:05.613Z,12.97
2018-06-10T13:21:33.116Z,12.97
2018-06-10T13:24:02.935Z,12.40
2018-06-10T13:26:30.494Z,19.13
2018-06-10T13:28:57.820Z,14.00
2018-06-10T13:31:26.239Z,13.57
2018-06-10T13:33:53.659Z,14.07
2018-06-10T13:36:21.862Z,14.90
2018-06-10T13:38:50.821Z,14.77
2018-06-10T13:41:18.555Z,13.43
2018-06-10T13:43:46.349Z,13.50
2018-06-10T13:46:13.820Z,15.37
2018-06-10T13:48:41.312Z,13.60
2018-06-10T13:51:09.165Z,13.73
2018-06-10T13:53:36.638Z,14.43
2018-06-10T13:56:04.134Z,14.67
2018-06-10T13:58:32.985Z,13.10
2018-06-10T14:01:00.342Z,16.43
2018-06-10T14:03:29.394Z,16.53
2018-06-10T14:05:56.822Z,16.17
2018-06-10T14:08:24.152Z,15.57
2018-06-10T14:10:51.550Z,18.60
2018-06-10T14:13:18.937Z,16.77
2018-06-10T14:15:46.277Z,34.30
2018-06-10T14:18:13.728Z,17.40
2018-06-10T14:20:41.092Z,17.73
2018-06-10T14:23:08.449Z,17.40
2018-06-10T14:25:35.807Z,14.93
2018-06-10T14:28:03.129Z,17.23
2018-06-10T14:30:30.461Z,17.67
2018-06-10T14:32:57.825Z,15.63
2018-06-10T14:35:25.237Z,14.83
2018-06-10T14:37:52.765Z,15.23
2018-06-10T14:40:20.082Z,14.13
2018-06-10T14:42:47.401Z,16.23
2018-06-10T14:45:14.705Z,14.00
2018-06-10T14:47:42.139Z,13.20
2018-06-10T14:50:09.465Z,13.73
2018-06-10T14:52:36.797Z,13.67
2018-06-10T14:55:04.267Z,14.37
2018-06-10T14:57:31.839Z,13.60
2018-06-10T14:59:59.720Z,13.10
2018-06-10T15:02:27.045Z,14.03
2018-06-10T15:04:54.553Z,13.00
2018-06-10T15:07:21.898Z,11.90
2018-06-10T15:09:49.222Z,14.23
2018-06-10T15:12:16.832Z,12.13
2018-06-10T15:14:44.177Z,15.20
2018-06-10T15:17:11.518Z,13.67
2018-06-10T15:19:39.061Z,15.07
2018-06-10T15:22:06.401Z,13.37
2018-06-10T15:24:33.744Z,13.90
2018-06-10T15:27:01.154Z,14.40
2018-06-10T15:29:28.846Z,15.13
2018-06-10T15:31:56.185Z,14.10
2018-06-10T15:34:23.546Z,14.70
2018-06-10T15:36:50.944Z,14.03
2018-06-10T15:39:18.285Z,14.10
2018-06-10T15:41:45.696Z,13.70
2018-06-10T15:44:13.022Z,12.87
2018-06-10T15:46:40.402Z,13.60
2018-06-10T15:49:07.781Z,13.20
2018-06-10T15:51:35.144Z,15.10
2018-06-10T15:54:02.562Z,15.67
2018-06-10T15:56:29.925Z,13.83
2018-06-10T15:58:57.857Z,15.23
2018-06-10T16:01:25.225Z,13.57
2018-06-10T16:03:52.785Z,13.27
2018-06-10T16:06:20.134Z,15.30
2018-06-10T16:08:47.481Z,14.43
2018-06-10T16:11:14.877Z,13.43
2018-06-10T16:13:42.252Z,14.50
2018-06-10T16:16:09.590Z,16.17
2018-06-10T16:18:36.967Z,15.63
2018-06-10T16:21:04.341Z,15.20
2018-06-10T16:23:32.063Z,13.43
2018-06-10T16:25:59.429Z,14.77
2018-06-10T16:28:26.805Z,14.13
2018-06-10T16:30:54.313Z,14.40
2018-06-10T16:33:21.850Z,12.70
2018-06-10T16:35:49.373Z,14.70
2018-06-10T16:38:16.905Z,14.70
2018-06-10T16:40:44.409Z,13.10
2018-06-10T16:43:11.839Z,15.70
2018-06-10T16:45:39.202Z,15.10
2018-06-10T16:48:06.636Z,15.53
2018-06-10T16:50:34.202Z,13.70
2018-06-10T16:53:01.697Z,16.70
2018-06-10T16:55:29.057Z,15.40
2018-06-10T16:57:56.395Z,14.13
2018-06-10T17:00:23.746Z,14.37
2018-06-10T17:02:51.580Z,15.40
2018-06-10T17:05:18.967Z,16.53
2018-06-10T17:07:46.392Z,15.67
2018-06-10T17:10:13.718Z,15.13
2018-06-10T17:12:41.045Z,15.60
2018-06-10T17:15:08.486Z,14.47
2018-06-10T17:17:35.930Z,14.23
2018-06-10T17:20:03.645Z,15.10
2018-06-10T17:22:31.069Z,15.50
2018-06-10T17:24:58.433Z,13.67
2018-06-10T17:27:25.949Z,15.17
2018-06-10T17:29:53.596Z,14.90
2018-06-10T17:32:21.551Z,15.00
2018-06-10T17:34:49.258Z,14.53
2018-06-10T17:37:16.831Z,17.77
2018-06-10T17:39:44.305Z,15.37
2018-06-10T17:42:11.872Z,16.13
2018-06-10T17:44:39.369Z,13.50
2018-06-10T17:47:06.829Z,15.37
2018-06-10T17:49:34.296Z,14.90
2018-06-10T17:52:01.886Z,15.60
2018-06-10T17:54:29.421Z,15.17
2018-06-10T17:56:56.956Z,15.47
2018-06-10T17:59:24.485Z,17.43
2018-06-10T18:01:51.977Z,14.30
2018-06-10T18:04:19.504Z,15.87
2018-06-10T18:06:46.950Z,15.03
2018-06-10T18:09:14.346Z,13.80
2018-06-10T18:11:41.896Z,15.47
2018-06-10T18:14:09.429Z,15.60
2018-06-10T18:16:36.973Z,17.23
2018-06-10T18:19:04.709Z,87.03
2018-06-10T18:21:32.324Z,16.50
2018-06-10T18:23:59.942Z,16.17
2018-06-10T18:26:27.466Z,24.10
2018-06-10T18:28:54.977Z,14.90
2018-06-10T18:31:22.459Z,15.30
2018-06-10T18:33:49.956Z,15.57
2018-06-10T18:36:17.453Z,16.33
2018-06-10T18:38:44.867Z,14.10
2018-06-10T18:41:12.424Z,17.40
2018-06-10T18:43:40.015Z,19.10
2018-06-10T18:46:07.889Z,17.53
2018-06-10T18:48:35.349Z,21.93
2018-06-10T18:51:02.849Z,14.97
2018-06-10T18:53:30.327Z,18.73
2018-06-10T18:55:57.825Z,15.07
2018-06-10T18:58:25.328Z,15.13
2018-06-10T19:00:52.925Z,14.93
2018-06-10T19:03:20.417Z,15.53
2018-06-10T19:05:47.869Z,14.80
2018-06-10T19:08:15.332Z,14.63
2018-06-10T19:10:42.859Z,14.70
2018-06-10T19:13:10.309Z,14.40
2018-06-10T19:15:37.704Z,13.80
2018-06-10T19:18:05.085Z,12.97
2018-06-10T19:20:32.469Z,14.93
2018-06-10T19:22:59.797Z,13.93
2018-06-10T19:25:27.257Z,14.73
2018-06-10T19:27:54.634Z,13.47
2018-06-10T19:30:21.997Z,14.80
2018-06-10T19:32:49.505Z,13.80
2018-06-10T19:35:16.789Z,16.10
2018-06-10T19:37:44.235Z,14.10
2018-06-10T19:40:11.639Z,16.07
2018-06-10T19:42:38.967Z,13.90
2018-06-10T19:45:06.535Z,14.67
2018-06-10T19:47:33.889Z,11.77
2018-06-10T19:50:01.410Z,13.47
2018-06-10T19:52:28.798Z,11.13
2018-06-10T19:54:56.209Z,13.43
2018-06-10T19:57:23.569Z,14.17
2018-06-10T19:59:50.928Z,12.33
2018-06-10T20:02:18.241Z,12.80
2018-06-10T20:04:45.656Z,14.40
2018-06-10T20:07:12.978Z,12.87
2018-06-10T20:09:40.324Z,11.90
2018-06-10T20:12:07.713Z,11.27
2018-06-10T20:14:35.089Z,13.37
2018-06-10T20:17:02.413Z,13.50
2018-06-10T20:19:29.738Z,14.43
2018-06-10T20:21:57.069Z,12.43
2018-06-10T20:24:24.381Z,11.13
2018-06-10T20:26:52.234Z,12.13
2018-06-10T20:29:19.553Z,10.93
2018-06-10T20:31:46.872Z,11.57
2018-06-10T20:34:14.248Z,11.83
2018-06-10T20:36:41.622Z,11.27
2018-06-10T20:39:08.925Z,11.47
2018-06-10T20:41:36.366Z,10.33
2018-06-10T20:44:03.880Z,10.67
2018-06-10T20:46:31.216Z,9.60
2018-06-10T20:48:58.535Z,11.40
2018-06-10T20:51:25.930Z,10.93
2018-06-10T20:53:53.261Z,10.47
2018-06-10T20:56:20.586Z,10.50
2018-06-10T20:58:48.342Z,10.30
2018-06-10T21:01:15.682Z,10.67
2018-06-10T21:03:42.981Z,10.87
2018-06-10T21:06:10.322Z,10.63
2018-06-10T21:08:37.685Z,10.90
2018-06-10T21:11:05.005Z,11.00
2018-06-10T21:13:32.784Z,10.63
2018-06-10T21:16:00.125Z,9.00
2018-06-10T21:18:27.528Z,9.50
2018-06-10T21:20:54.958Z,9.63
2018-06-10T21:23:22.269Z,10.50
2018-06-10T21:25:49.605Z,10.80
2018-06-10T21:28:16.950Z,11.53
2018-06-10T21:30:44.337Z,9.90
2018-06-10T21:33:11.661Z,9.40
2018-06-10T21:35:39.009Z,12.13
2018-06-10T21:38:06.433Z,8.80
2018-06-10T21:40:34.333Z,8.80
2018-06-10T21:43:01.661Z,9.77
2018-06-10T21:45:29.083Z,9.30
2018-06-10T21:47:56.441Z,11.37
2018-06-10T21:50:23.768Z,8.63
2018-06-10T21:52:51.190Z,8.40
2018-06-10T21:55:18.637Z,8.60
2018-06-10T21:57:46.044Z,9.30
2018-06-10T22:00:23.089Z,9.43
2018-06-10T22:02:50.507Z,9.20
2018-06-10T22:05:17.961Z,7.83
2018-06-10T22:07:45.336Z,7.80
2018-06-10T22:10:12.661Z,8.57
2018-06-10T22:12:39.981Z,7.67
2018-06-10T22:15:07.377Z,8.90
2018-06-10T22:17:34.820Z,7.23
2018-06-10T22:20:02.266Z,7.70
2018-06-10T22:22:29.625Z,9.03
2018-06-10T22:24:56.983Z,7.87
2018-06-10T22:27:24.365Z,7.40
2018-06-10T22:29:51.714Z,6.93
2018-06-10T22:32:19.070Z,7.83
2018-06-10T22:34:46.393Z,8.30
2018-06-10T22:37:13.751Z,6.93
2018-06-10T22:39:41.065Z,7.63
2018-06-10T22:42:08.385Z,7.83
2018-06-10T22:44:35.705Z,7.67
2018-06-10T22:47:03.288Z,6.67
2018-06-10T22:49:30.633Z,7.03
2018-06-10T22:51:58.029Z,6.23
2018-06-10T22:54:45.921Z,7.20
2018-06-10T22:57:13.317Z,5.83
2018-06-10T22:59:40.650Z,7.93
2018-06-10T23:02:08.962Z,7.27
2018-06-10T23:04:36.296Z,7.37
2018-06-10T23:07:03.679Z,7.10
2018-06-10T23:09:31.005Z,7.80
2018-06-10T23:11:58.332Z,7.67
2018-06-10T23:14:26.068Z,7.63
2018-06-10T23:16:53.378Z,7.93
2018-06-10T23:19:20.758Z,9.37
2018-06-10T23:21:48.073Z,7.87
2018-06-10T23:24:15.801Z,9.47
2018-06-10T23:26:43.116Z,8.17
2018-06-10T23:29:10.437Z,8.40
2018-06-10T23:31:37.744Z,8.87
2018-06-10T23:34:05.106Z,8.90
2018-06-10T23:36:32.449Z,9.40
2018-06-10T23:38:59.749Z,10.07
2018-06-10T23:41:27.246Z,9.60
2018-06-10T23:43:54.600Z,9.80
2018-06-10T23:46:21.914Z,11.80
2018-06-10T23:48:49.249Z,9.20
2018-06-10T23:51:16.605Z,10.37
2018-06-10T23:53:44.021Z,9.77
2018-06-10T23:56:11.357Z,10.30
2018-06-10T23:58:38.669Z,9.03
